sensor_id;sensor_type;location;lat;lon;timestamp;P1;durP1;ratioP1;P2;durP2;ratioP2
21804;SDS011;11064;47.102;15.452;2023-03-01T05:02:53;24.90;;;13.88;;
21804;SDS011;11064;47.102;15.452;2023-03-01T05:05:31;24.45;;;13.40;;
21804;SDS011;11064;47.102;15.452;2023-03-01T05:08:01;24.63;;;13.60;;
21804;SDS011;11064;47.102;15.452;2023-03-01T05:10:31;24.88;;;13.48;;
21804;SDS011;11064;47.102;15.452;2023-03-01T05:12:59;25.00;;;13.88;;
21804;SDS011;11064;47.102;15.452;2023-03-01T05:15:29;26.30;;;14.40;;
21804;SDS011;11064;47.102;15.452;2023-03-01T05:17:57;25.63;;;13.45;;
21804;SDS011;11064;47.102;15.452;2023-03-01T05:20:25;28.10;;;14.77;;
21804;SDS011;11064;47.102;15.452;2023-03-01T05:22:56;25.67;;;14.38;;
21804;SDS011;11064;47.102;15.452;2023-03-01T05:25:30;25.42;;;14.13;;
21804;SDS011;11064;47.102;15.452;2023-03-01T05:28:01;26.05;;;14.07;;
21804;SDS011;11064;47.102;15.452;2023-03-01T05:30:34;24.10;;;13.27;;
21804;SDS011;11064;47.102;15.452;2023-03-01T05:33:00;24.10;;;13.43;;
21804;SDS011;11064;47.102;15.452;2023-03-01T05:35:26;23.75;;;13.35;;
21804;SDS011;11064;47.102;15.452;2023-03-01T05:37:52;25.27;;;14.20;;
21804;SDS011;11064;47.102;15.452;2023-03-01T05:40:19;23.33;;;13.70;;
21804;SDS011;11064;47.102;15.452;2023-03-01T05:42:53;26.33;;;14.35;;
21804;SDS011;11064;47.102;15.452;2023-03-01T05:45:21;22.13;;;13.13;;
21804;SDS011;11064;47.102;15.452;2023-03-01T05:47:48;25.63;;;14.25;;
21804;SDS011;11064;47.102;15.452;2023-03-01T05:52:47;23.10;;;13.43;;
21804;SDS011;11064;47.102;15.452;2023-03-01T05:55:18;24.55;;;13.00;;
21804;SDS011;11064;47.102;15.452;2023-03-01T05:57:45;23.98;;;13.95;;
21804;SDS011;11064;47.102;15.452;2023-03-01T06:00:12;21.58;;;12.85;;
21804;SDS011;11064;47.102;15.452;2023-03-01T06:02:39;23.05;;;12.98;;
21804;SDS011;11064;47.102;15.452;2023-03-01T06:05:06;22.02;;;13.30;;
21804;SDS011;11064;47.102;15.452;2023-03-01T06:07:34;24.08;;;12.73;;
21804;SDS011;11064;47.102;15.452;2023-03-01T06:10:01;24.35;;;14.10;;
21804;SDS011;11064;47.102;15.452;2023-03-01T06:12:31;25.50;;;14.27;;
21804;SDS011;11064;47.102;15.452;2023-03-01T06:14:59;26.45;;;14.48;;
21804;SDS011;11064;47.102;15.452;2023-03-01T06:17:25;23.50;;;14.40;;
21804;SDS011;11064;47.102;15.452;2023-03-01T06:19:53;24.17;;;14.23;;
21804;SDS011;11064;47.102;15.452;2023-03-01T06:22:19;27.50;;;15.32;;
21804;SDS011;11064;47.102;15.452;2023-03-01T06:24:45;27.80;;;14.82;;
21804;SDS011;11064;47.102;15.452;2023-03-01T06:27:11;25.08;;;13.93;;
21804;SDS011;11064;47.102;15.452;2023-03-01T06:29:36;24.60;;;13.95;;
21804;SDS011;11064;47.102;15.452;2023-03-01T06:32:02;25.10;;;13.98;;
21804;SDS011;11064;47.102;15.452;2023-03-01T06:34:29;26.13;;;14.63;;
21804;SDS011;11064;47.102;15.452;2023-03-01T06:36:55;25.13;;;14.18;;
21804;SDS011;11064;47.102;15.452;2023-03-01T06:39:21;25.35;;;14.60;;
21804;SDS011;11064;47.102;15.452;2023-03-01T06:41:47;28.15;;;14.25;;
21804;SDS011;11064;47.102;15.452;2023-03-01T06:44:13;26.08;;;14.93;;
21804;SDS011;11064;47.102;15.452;2023-03-01T06:46:39;26.60;;;14.30;;
21804;SDS011;11064;47.102;15.452;2023-03-01T06:49:05;25.40;;;14.15;;
21804;SDS011;11064;47.102;15.452;2023-03-01T06:51:34;25.52;;;14.13;;
21804;SDS011;11064;47.102;15.452;2023-03-01T06:54:02;25.92;;;14.32;;
21804;SDS011;11064;47.102;15.452;2023-03-01T06:56:30;26.40;;;14.55;;
21804;SDS011;11064;47.102;15.452;2023-03-01T06:58:57;27.08;;;15.15;;
21804;SDS011;11064;47.102;15.452;2023-03-01T07:01:23;26.35;;;14.23;;
21804;SDS011;11064;47.102;15.452;2023-03-01T07:03:49;26.88;;;15.13;;
21804;SDS011;11064;47.102;15.452;2023-03-01T07:06:14;26.63;;;14.18;;
21804;SDS011;11064;47.102;15.452;2023-03-01T07:08:40;29.23;;;15.15;;
21804;SDS011;11064;47.102;15.452;2023-03-01T07:11:06;23.67;;;14.70;;
21804;SDS011;11064;47.102;15.452;2023-03-01T07:13:33;26.17;;;15.32;;
21804;SDS011;11064;47.102;15.452;2023-03-01T07:15:58;25.67;;;15.45;;
21804;SDS011;11064;47.102;15.452;2023-03-01T07:18:25;25.63;;;14.90;;
21804;SDS011;11064;47.102;15.452;2023-03-01T07:20:51;26.92;;;15.18;;
21804;SDS011;11064;47.102;15.452;2023-03-01T07:23:16;26.55;;;15.27;;
21804;SDS011;11064;47.102;15.452;2023-03-01T07:25:43;26.85;;;14.50;;
21804;SDS011;11064;47.102;15.452;2023-03-01T07:28:09;28.25;;;15.18;;
21804;SDS011;11064;47.102;15.452;2023-03-01T07:30:35;25.45;;;14.63;;
21804;SDS011;11064;47.102;15.452;2023-03-01T07:33:01;29.25;;;15.50;;
21804;SDS011;11064;47.102;15.452;2023-03-01T07:35:27;26.65;;;15.45;;
21804;SDS011;11064;47.102;15.452;2023-03-01T07:37:53;29.88;;;15.25;;
21804;SDS011;11064;47.102;15.452;2023-03-01T07:40:19;24.20;;;14.27;;
21804;SDS011;11064;47.102;15.452;2023-03-01T07:42:45;27.42;;;14.75;;
21804;SDS011;11064;47.102;15.452;2023-03-01T07:45:11;24.20;;;13.85;;
21804;SDS011;11064;47.102;15.452;2023-03-01T07:47:38;24.63;;;14.18;;
21804;SDS011;11064;47.102;15.452;2023-03-01T07:50:04;23.60;;;13.05;;
21804;SDS011;11064;47.102;15.452;2023-03-01T07:52:30;24.42;;;13.75;;
21804;SDS011;11064;47.102;15.452;2023-03-01T07:54:56;22.85;;;13.23;;
21804;SDS011;11064;47.102;15.452;2023-03-01T07:57:23;22.38;;;12.80;;
21804;SDS011;11064;47.102;15.452;2023-03-01T07:59:49;24.05;;;13.93;;
21804;SDS011;11064;47.102;15.452;2023-03-01T08:02:14;25.98;;;14.40;;
21804;SDS011;11064;47.102;15.452;2023-03-01T08:04:41;26.85;;;14.35;;
21804;SDS011;11064;47.102;15.452;2023-03-01T08:07:07;25.67;;;15.07;;
21804;SDS011;11064;47.102;15.452;2023-03-01T08:09:37;26.55;;;15.25;;
21804;SDS011;11064;47.102;15.452;2023-03-01T08:12:03;26.45;;;16.33;;
21804;SDS011;11064;47.102;15.452;2023-03-01T08:14:30;30.17;;;16.90;;
21804;SDS011;11064;47.102;15.452;2023-03-01T08:16:57;29.38;;;15.98;;
21804;SDS011;11064;47.102;15.452;2023-03-01T08:19:22;29.55;;;16.75;;
21804;SDS011;11064;47.102;15.452;2023-03-01T08:21:48;28.60;;;16.77;;
21804;SDS011;11064;47.102;15.452;2023-03-01T08:24:14;30.38;;;16.98;;
21804;SDS011;11064;47.102;15.452;2023-03-01T08:26:40;33.85;;;19.05;;
21804;SDS011;11064;47.102;15.452;2023-03-01T08:29:06;34.80;;;18.73;;
21804;SDS011;11064;47.102;15.452;2023-03-01T08:31:36;32.03;;;18.15;;
21804;SDS011;11064;47.102;15.452;2023-03-01T08:34:05;33.30;;;18.35;;
21804;SDS011;11064;47.102;15.452;2023-03-01T08:36:36;32.33;;;18.23;;
21804;SDS011;11064;47.102;15.452;2023-03-01T08:39:03;33.83;;;18.00;;
21804;SDS011;11064;47.102;15.452;2023-03-01T08:41:30;28.92;;;16.92;;
21804;SDS011;11064;47.102;15.452;2023-03-01T08:43:56;27.17;;;14.88;;
21804;SDS011;11064;47.102;15.452;2023-03-01T08:46:29;26.52;;;15.32;;
21804;SDS011;11064;47.102;15.452;2023-03-01T08:48:57;24.58;;;14.70;;
21804;SDS011;11064;47.102;15.452;2023-03-01T08:51:23;25.88;;;15.75;;
21804;SDS011;11064;47.102;15.452;2023-03-01T08:53:50;22.83;;;13.38;;
21804;SDS011;11064;47.102;15.452;2023-03-01T08:56:17;23.95;;;14.00;;
21804;SDS011;11064;47.102;15.452;2023-03-01T08:58:46;24.00;;;14.60;;
21804;SDS011;11064;47.102;15.452;2023-03-01T09:01:17;24.93;;;14.07;;
21804;SDS011;11064;47.102;15.452;2023-03-01T09:03:44;24.45;;;13.63;;
21804;SDS011;11064;47.102;15.452;2023-03-01T09:06:11;23.67;;;14.50;;
21804;SDS011;11064;47.102;15.452;2023-03-01T09:08:38;24.10;;;14.75;;
21804;SDS011;11064;47.102;15.452;2023-03-01T09:11:07;25.40;;;15.07;;
21804;SDS011;11064;47.102;15.452;2023-03-01T09:13:34;25.13;;;14.55;;
21804;SDS011;11064;47.102;15.452;2023-03-01T09:16:00;25.02;;;15.30;;
21804;SDS011;11064;47.102;15.452;2023-03-01T09:18:28;28.60;;;14.80;;
21804;SDS011;11064;47.102;15.452;2023-03-01T09:21:00;26.83;;;15.18;;
21804;SDS011;11064;47.102;15.452;2023-03-01T09:23:40;24.92;;;15.15;;
21804;SDS011;11064;47.102;15.452;2023-03-01T09:26:09;27.50;;;15.50;;
21804;SDS011;11064;47.102;15.452;2023-03-01T09:28:37;25.33;;;15.38;;
21804;SDS011;11064;47.102;15.452;2023-03-01T09:31:09;26.38;;;15.30;;
21804;SDS011;11064;47.102;15.452;2023-03-01T09:33:38;26.10;;;15.48;;
21804;SDS011;11064;47.102;15.452;2023-03-01T09:36:06;27.52;;;15.75;;
21804;SDS011;11064;47.102;15.452;2023-03-01T09:38:36;35.92;;;16.80;;
21804;SDS011;11064;47.102;15.452;2023-03-01T09:41:02;28.83;;;16.17;;
21804;SDS011;11064;47.102;15.452;2023-03-01T09:43:40;28.13;;;15.93;;
21804;SDS011;11064;47.102;15.452;2023-03-01T09:46:09;28.80;;;15.95;;
21804;SDS011;11064;47.102;15.452;2023-03-01T09:48:42;25.88;;;15.18;;
21804;SDS011;11064;47.102;15.452;2023-03-01T09:51:19;32.13;;;16.40;;
21804;SDS011;11064;47.102;15.452;2023-03-01T09:53:51;29.35;;;17.20;;
21804;SDS011;11064;47.102;15.452;2023-03-01T09:56:20;31.27;;;16.60;;
21804;SDS011;11064;47.102;15.452;2023-03-01T10:10:06;29.93;;;16.90;;
21804;SDS011;11064;47.102;15.452;2023-03-01T10:12:38;26.95;;;15.43;;
21804;SDS011;11064;47.102;15.452;2023-03-01T10:17:57;25.73;;;15.20;;
21804;SDS011;11064;47.102;15.452;2023-03-01T10:23:13;29.10;;;15.98;;
21804;SDS011;11064;47.102;15.452;2023-03-01T10:28:42;27.73;;;15.48;;
21804;SDS011;11064;47.102;15.452;2023-03-01T10:31:20;27.23;;;15.10;;
21804;SDS011;11064;47.102;15.452;2023-03-01T10:33:53;27.13;;;15.48;;
21804;SDS011;11064;47.102;15.452;2023-03-01T10:36:21;25.35;;;15.45;;
21804;SDS011;11064;47.102;15.452;2023-03-01T10:38:50;25.15;;;15.43;;
21804;SDS011;11064;47.102;15.452;2023-03-01T10:41:23;26.42;;;16.02;;
21804;SDS011;11064;47.102;15.452;2023-03-01T10:43:54;27.53;;;15.67;;
21804;SDS011;11064;47.102;15.452;2023-03-01T10:46:29;28.67;;;16.17;;
21804;SDS011;11064;47.102;15.452;2023-03-01T10:49:07;27.95;;;16.27;;
21804;SDS011;11064;47.102;15.452;2023-03-01T10:51:32;27.10;;;15.57;;
21804;SDS011;11064;47.102;15.452;2023-03-01T10:53:58;28.48;;;16.70;;
21804;SDS011;11064;47.102;15.452;2023-03-01T10:56:24;30.20;;;16.65;;
21804;SDS011;11064;47.102;15.452;2023-03-01T10:58:57;27.42;;;16.52;;
21804;SDS011;11064;47.102;15.452;2023-03-01T11:01:26;30.08;;;16.83;;
21804;SDS011;11064;47.102;15.452;2023-03-01T11:06:35;30.00;;;16.45;;
21804;SDS011;11064;47.102;15.452;2023-03-01T11:09:19;30.90;;;16.98;;
21804;SDS011;11064;47.102;15.452;2023-03-01T11:11:51;27.88;;;16.45;;
21804;SDS011;11064;47.102;15.452;2023-03-01T11:14:20;31.35;;;17.92;;
21804;SDS011;11064;47.102;15.452;2023-03-01T11:16:49;27.57;;;16.60;;
21804;SDS011;11064;47.102;15.452;2023-03-01T11:19:28;31.08;;;16.48;;
21804;SDS011;11064;47.102;15.452;2023-03-01T11:24:33;32.47;;;16.27;;
21804;SDS011;11064;47.102;15.452;2023-03-01T11:29:52;30.10;;;16.67;;
21804;SDS011;11064;47.102;15.452;2023-03-01T11:32:27;28.27;;;16.30;;
21804;SDS011;11064;47.102;15.452;2023-03-01T11:35:32;30.52;;;17.08;;
21804;SDS011;11064;47.102;15.452;2023-03-01T11:37:59;29.08;;;16.85;;
21804;SDS011;11064;47.102;15.452;2023-03-01T11:40:42;28.58;;;16.98;;
21804;SDS011;11064;47.102;15.452;2023-03-01T11:43:15;30.33;;;16.85;;
21804;SDS011;11064;47.102;15.452;2023-03-01T11:48:58;29.33;;;17.13;;
21804;SDS011;11064;47.102;15.452;2023-03-01T12:06:07;31.17;;;16.67;;
21804;SDS011;11064;47.102;15.452;2023-03-01T12:17:39;29.55;;;16.35;;
21804;SDS011;11064;47.102;15.452;2023-03-01T12:20:14;28.45;;;15.93;;
21804;SDS011;11064;47.102;15.452;2023-03-01T12:25:39;31.63;;;15.57;;
21804;SDS011;11064;47.102;15.452;2023-03-01T12:42:30;29.67;;;15.55;;
21804;SDS011;11064;47.102;15.452;2023-03-01T12:45:21;27.30;;;15.27;;
21804;SDS011;11064;47.102;15.452;2023-03-01T12:51:37;26.17;;;14.55;;
21804;SDS011;11064;47.102;15.452;2023-03-01T12:54:07;27.30;;;14.57;;
21804;SDS011;11064;47.102;15.452;2023-03-01T12:56:40;27.17;;;14.57;;
21804;SDS011;11064;47.102;15.452;2023-03-01T13:02:15;24.98;;;14.07;;
21804;SDS011;11064;47.102;15.452;2023-03-01T13:04:53;25.05;;;14.40;;
21804;SDS011;11064;47.102;15.452;2023-03-01T13:07:41;24.65;;;14.68;;
21804;SDS011;11064;47.102;15.452;2023-03-01T13:10:34;25.20;;;13.93;;
21804;SDS011;11064;47.102;15.452;2023-03-01T13:15:34;23.75;;;14.05;;
21804;SDS011;11064;47.102;15.452;2023-03-01T13:28:41;21.48;;;12.50;;
21804;SDS011;11064;47.102;15.452;2023-03-01T13:33:44;21.52;;;12.73;;
21804;SDS011;11064;47.102;15.452;2023-03-01T13:36:11;20.00;;;11.57;;
21804;SDS011;11064;47.102;15.452;2023-03-01T13:38:58;19.88;;;11.57;;
21804;SDS011;11064;47.102;15.452;2023-03-01T13:49:36;22.65;;;11.98;;
21804;SDS011;11064;47.102;15.452;2023-03-01T13:55:01;18.95;;;11.55;;
21804;SDS011;11064;47.102;15.452;2023-03-01T13:57:36;20.88;;;11.25;;
21804;SDS011;11064;47.102;15.452;2023-03-01T14:00:04;18.70;;;11.52;;
21804;SDS011;11064;47.102;15.452;2023-03-01T14:02:31;18.83;;;11.05;;
21804;SDS011;11064;47.102;15.452;2023-03-01T14:04:58;20.30;;;10.90;;
21804;SDS011;11064;47.102;15.452;2023-03-01T14:07:25;21.00;;;12.48;;
21804;SDS011;11064;47.102;15.452;2023-03-01T14:18:24;20.85;;;12.40;;
21804;SDS011;11064;47.102;15.452;2023-03-01T14:21:07;23.58;;;12.90;;
21804;SDS011;11064;47.102;15.452;2023-03-01T14:23:34;20.77;;;12.43;;
21804;SDS011;11064;47.102;15.452;2023-03-01T14:26:01;23.27;;;12.27;;
21804;SDS011;11064;47.102;15.452;2023-03-01T14:28:29;20.17;;;11.85;;
21804;SDS011;11064;47.102;15.452;2023-03-01T14:30:59;20.83;;;12.30;;
21804;SDS011;11064;47.102;15.452;2023-03-01T14:33:27;21.02;;;12.35;;
21804;SDS011;11064;47.102;15.452;2023-03-01T14:36:11;22.30;;;12.23;;
21804;SDS011;11064;47.102;15.452;2023-03-01T14:38:39;19.02;;;12.00;;
21804;SDS011;11064;47.102;15.452;2023-03-01T14:41:08;20.23;;;11.80;;
21804;SDS011;11064;47.102;15.452;2023-03-01T14:43:46;20.20;;;12.02;;
21804;SDS011;11064;47.102;15.452;2023-03-01T14:49:21;22.73;;;14.00;;
21804;SDS011;11064;47.102;15.452;2023-03-01T14:51:55;19.45;;;11.85;;
21804;SDS011;11064;47.102;15.452;2023-03-01T14:54:39;29.50;;;12.10;;
21804;SDS011;11064;47.102;15.452;2023-03-01T14:57:14;21.40;;;12.25;;
21804;SDS011;11064;47.102;15.452;2023-03-01T14:59:42;23.35;;;12.77;;
21804;SDS011;11064;47.102;15.452;2023-03-01T15:02:11;16.98;;;11.73;;
21804;SDS011;11064;47.102;15.452;2023-03-01T15:04:42;22.33;;;11.98;;
21804;SDS011;11064;47.102;15.452;2023-03-01T15:07:12;21.75;;;11.45;;
21804;SDS011;11064;47.102;15.452;2023-03-01T15:09:39;20.92;;;11.70;;
21804;SDS011;11064;47.102;15.452;2023-03-01T15:14:50;21.27;;;12.32;;
21804;SDS011;11064;47.102;15.452;2023-03-01T15:17:39;19.05;;;12.02;;
21804;SDS011;11064;47.102;15.452;2023-03-01T15:20:05;20.92;;;11.27;;
21804;SDS011;11064;47.102;15.452;2023-03-01T15:22:43;23.55;;;12.52;;
21804;SDS011;11064;47.102;15.452;2023-03-01T15:25:16;21.70;;;11.68;;
21804;SDS011;11064;47.102;15.452;2023-03-01T15:27:46;21.05;;;12.18;;
21804;SDS011;11064;47.102;15.452;2023-03-01T15:30:17;19.17;;;11.23;;
21804;SDS011;11064;47.102;15.452;2023-03-01T15:32:45;18.35;;;10.77;;
21804;SDS011;11064;47.102;15.452;2023-03-01T15:40:53;21.30;;;11.55;;
21804;SDS011;11064;47.102;15.452;2023-03-01T15:43:40;21.40;;;12.35;;
21804;SDS011;11064;47.102;15.452;2023-03-01T15:46:17;18.15;;;11.93;;
21804;SDS011;11064;47.102;15.452;2023-03-01T15:48:47;21.92;;;12.68;;
21804;SDS011;11064;47.102;15.452;2023-03-01T15:53:47;20.48;;;12.00;;
21804;SDS011;11064;47.102;15.452;2023-03-01T15:56:15;21.08;;;12.10;;
21804;SDS011;11064;47.102;15.452;2023-03-01T15:58:41;18.98;;;11.15;;
21804;SDS011;11064;47.102;15.452;2023-03-01T16:01:13;20.15;;;11.60;;
21804;SDS011;11064;47.102;15.452;2023-03-01T16:03:42;24.05;;;12.52;;
21804;SDS011;11064;47.102;15.452;2023-03-01T16:06:09;18.52;;;10.95;;
21804;SDS011;11064;47.102;15.452;2023-03-01T16:08:35;19.33;;;11.40;;
21804;SDS011;11064;47.102;15.452;2023-03-01T16:11:05;21.08;;;12.32;;
21804;SDS011;11064;47.102;15.452;2023-03-01T16:13:39;20.58;;;12.35;;
21804;SDS011;11064;47.102;15.452;2023-03-01T16:16:05;22.15;;;12.27;;
21804;SDS011;11064;47.102;15.452;2023-03-01T16:18:32;20.60;;;12.35;;
21804;SDS011;11064;47.102;15.452;2023-03-01T16:20:58;22.20;;;12.55;;
21804;SDS011;11064;47.102;15.452;2023-03-01T16:23:24;23.00;;;12.57;;
21804;SDS011;11064;47.102;15.452;2023-03-01T16:25:50;23.58;;;12.38;;
21804;SDS011;11064;47.102;15.452;2023-03-01T16:28:16;22.00;;;12.98;;
21804;SDS011;11064;47.102;15.452;2023-03-01T16:30:45;19.30;;;11.65;;
21804;SDS011;11064;47.102;15.452;2023-03-01T16:33:13;21.13;;;12.68;;
21804;SDS011;11064;47.102;15.452;2023-03-01T16:35:39;22.88;;;12.30;;
21804;SDS011;11064;47.102;15.452;2023-03-01T16:38:05;22.05;;;12.55;;
21804;SDS011;11064;47.102;15.452;2023-03-01T16:40:31;19.95;;;11.98;;
21804;SDS011;11064;47.102;15.452;2023-03-01T16:42:58;21.67;;;13.05;;
21804;SDS011;11064;47.102;15.452;2023-03-01T16:45:28;22.90;;;12.63;;
21804;SDS011;11064;47.102;15.452;2023-03-01T16:47:58;19.98;;;12.43;;
21804;SDS011;11064;47.102;15.452;2023-03-01T16:50:24;21.35;;;13.05;;
21804;SDS011;11064;47.102;15.452;2023-03-01T16:52:50;25.55;;;13.75;;
21804;SDS011;11064;47.102;15.452;2023-03-01T16:55:16;21.75;;;12.68;;
21804;SDS011;11064;47.102;15.452;2023-03-01T16:57:42;22.98;;;13.02;;
21804;SDS011;11064;47.102;15.452;2023-03-01T17:00:08;23.75;;;14.13;;
21804;SDS011;11064;47.102;15.452;2023-03-01T17:02:37;25.75;;;14.73;;
21804;SDS011;11064;47.102;15.452;2023-03-01T17:05:05;30.38;;;16.17;;
21804;SDS011;11064;47.102;15.452;2023-03-01T17:07:32;28.50;;;15.93;;
21804;SDS011;11064;47.102;15.452;2023-03-01T17:10:00;26.42;;;14.43;;
21804;SDS011;11064;47.102;15.452;2023-03-01T17:12:26;24.85;;;13.80;;
21804;SDS011;11064;47.102;15.452;2023-03-01T17:14:52;28.20;;;15.98;;
21804;SDS011;11064;47.102;15.452;2023-03-01T17:17:19;36.05;;;21.17;;
21804;SDS011;11064;47.102;15.452;2023-03-01T17:19:45;31.25;;;16.95;;
21804;SDS011;11064;47.102;15.452;2023-03-01T17:22:11;34.95;;;16.38;;
21804;SDS011;11064;47.102;15.452;2023-03-01T17:24:38;24.98;;;15.10;;
21804;SDS011;11064;47.102;15.452;2023-03-01T17:27:05;28.10;;;15.45;;
21804;SDS011;11064;47.102;15.452;2023-03-01T17:29:33;29.90;;;16.58;;
21804;SDS011;11064;47.102;15.452;2023-03-01T17:32:00;35.15;;;19.67;;
21804;SDS011;11064;47.102;15.452;2023-03-01T17:34:26;29.30;;;16.58;;
21804;SDS011;11064;47.102;15.452;2023-03-01T17:36:52;31.05;;;16.98;;
21804;SDS011;11064;47.102;15.452;2023-03-01T17:39:18;32.83;;;17.80;;
21804;SDS011;11064;47.102;15.452;2023-03-01T17:41:50;59.83;;;38.70;;
21804;SDS011;11064;47.102;15.452;2023-03-01T17:44:16;30.98;;;15.23;;
21804;SDS011;11064;47.102;15.452;2023-03-01T17:46:42;30.75;;;17.75;;
21804;SDS011;11064;47.102;15.452;2023-03-01T17:49:08;36.75;;;21.35;;
21804;SDS011;11064;47.102;15.452;2023-03-01T17:51:34;29.35;;;15.63;;
21804;SDS011;11064;47.102;15.452;2023-03-01T17:54:01;30.13;;;15.77;;
21804;SDS011;11064;47.102;15.452;2023-03-01T17:56:28;29.17;;;17.05;;
21804;SDS011;11064;47.102;15.452;2023-03-01T17:58:56;27.00;;;14.05;;
21804;SDS011;11064;47.102;15.452;2023-03-01T18:01:24;25.83;;;14.48;;
21804;SDS011;11064;47.102;15.452;2023-03-01T18:03:52;27.63;;;15.02;;
21804;SDS011;11064;47.102;15.452;2023-03-01T18:06:23;25.38;;;14.77;;
21804;SDS011;11064;47.102;15.452;2023-03-01T18:08:51;31.27;;;15.00;;
21804;SDS011;11064;47.102;15.452;2023-03-01T18:11:19;28.00;;;15.05;;
21804;SDS011;11064;47.102;15.452;2023-03-01T18:13:50;27.63;;;14.98;;
21804;SDS011;11064;47.102;15.452;2023-03-01T18:16:19;27.48;;;15.43;;
21804;SDS011;11064;47.102;15.452;2023-03-01T18:18:46;29.08;;;15.27;;
21804;SDS011;11064;47.102;15.452;2023-03-01T18:21:13;26.00;;;14.70;;
21804;SDS011;11064;47.102;15.452;2023-03-01T18:23:41;29.20;;;15.13;;
21804;SDS011;11064;47.102;15.452;2023-03-01T18:26:08;27.73;;;15.23;;
21804;SDS011;11064;47.102;15.452;2023-03-01T18:28:36;32.40;;;16.70;;
21804;SDS011;11064;47.102;15.452;2023-03-01T18:31:05;29.88;;;15.45;;
21804;SDS011;11064;47.102;15.452;2023-03-01T18:33:33;32.75;;;16.60;;
21804;SDS011;11064;47.102;15.452;2023-03-01T18:36:01;36.55;;;17.17;;
21804;SDS011;11064;47.102;15.452;2023-03-01T18:38:29;29.63;;;15.57;;
21804;SDS011;11064;47.102;15.452;2023-03-01T18:40:56;26.52;;;15.15;;
21804;SDS011;11064;47.102;15.452;2023-03-01T18:43:22;33.03;;;16.73;;
21804;SDS011;11064;47.102;15.452;2023-03-01T18:45:56;31.25;;;16.75;;
21804;SDS011;11064;47.102;15.452;2023-03-01T18:48:23;33.42;;;17.10;;
21804;SDS011;11064;47.102;15.452;2023-03-01T18:50:50;30.08;;;16.25;;
21804;SDS011;11064;47.102;15.452;2023-03-01T18:53:16;28.42;;;16.42;;
21804;SDS011;11064;47.102;15.452;2023-03-01T18:55:42;30.02;;;16.13;;
21804;SDS011;11064;47.102;15.452;2023-03-01T18:58:08;34.22;;;17.70;;
21804;SDS011;11064;47.102;15.452;2023-03-01T19:00:35;40.30;;;18.25;;
21804;SDS011;11064;47.102;15.452;2023-03-01T19:03:01;32.75;;;17.88;;
21804;SDS011;11064;47.102;15.452;2023-03-01T19:05:28;33.40;;;18.23;;
21804;SDS011;11064;47.102;15.452;2023-03-01T19:07:55;34.50;;;18.23;;
21804;SDS011;11064;47.102;15.452;2023-03-01T19:10:22;34.30;;;18.08;;
21804;SDS011;11064;47.102;15.452;2023-03-01T19:12:49;34.60;;;18.05;;
21804;SDS011;11064;47.102;15.452;2023-03-01T19:15:15;30.08;;;16.80;;
21804;SDS011;11064;47.102;15.452;2023-03-01T19:17:42;34.40;;;18.17;;
21804;SDS011;11064;47.102;15.452;2023-03-01T19:20:09;37.00;;;19.92;;
21804;SDS011;11064;47.102;15.452;2023-03-01T19:22:37;35.85;;;19.48;;
21804;SDS011;11064;47.102;15.452;2023-03-01T19:25:04;31.45;;;19.60;;
21804;SDS011;11064;47.102;15.452;2023-03-01T19:27:31;32.90;;;18.15;;
21804;SDS011;11064;47.102;15.452;2023-03-01T19:29:57;70.95;;;33.80;;
21804;SDS011;11064;47.102;15.452;2023-03-01T19:32:23;84.40;;;38.00;;
21804;SDS011;11064;47.102;15.452;2023-03-01T19:34:49;37.97;;;21.50;;
21804;SDS011;11064;47.102;15.452;2023-03-01T19:37:15;37.25;;;19.77;;
21804;SDS011;11064;47.102;15.452;2023-03-01T19:39:41;34.25;;;19.75;;
21804;SDS011;11064;47.102;15.452;2023-03-01T19:42:08;34.67;;;19.98;;
21804;SDS011;11064;47.102;15.452;2023-03-01T19:44:36;39.20;;;21.33;;
21804;SDS011;11064;47.102;15.452;2023-03-01T19:47:03;38.72;;;19.33;;
21804;SDS011;11064;47.102;15.452;2023-03-01T19:49:30;32.67;;;18.60;;
21804;SDS011;11064;47.102;15.452;2023-03-01T19:51:57;34.53;;;20.05;;
21804;SDS011;11064;47.102;15.452;2023-03-01T19:54:23;40.33;;;20.58;;
21804;SDS011;11064;47.102;15.452;2023-03-01T19:56:50;35.72;;;19.80;;
21804;SDS011;11064;47.102;15.452;2023-03-01T19:59:20;35.85;;;19.23;;
21804;SDS011;11064;47.102;15.452;2023-03-01T20:01:49;36.65;;;19.25;;
21804;SDS011;11064;47.102;15.452;2023-03-01T20:04:16;36.65;;;18.90;;
21804;SDS011;11064;47.102;15.452;2023-03-01T20:06:44;34.63;;;18.58;;
21804;SDS011;11064;47.102;15.452;2023-03-01T20:09:10;34.65;;;19.13;;
21804;SDS011;11064;47.102;15.452;2023-03-01T20:11:38;34.25;;;18.98;;
21804;SDS011;11064;47.102;15.452;2023-03-01T20:14:06;33.80;;;18.73;;
21804;SDS011;11064;47.102;15.452;2023-03-01T20:16:39;33.25;;;19.40;;
21804;SDS011;11064;47.102;15.452;2023-03-01T20:19:06;33.20;;;19.13;;
21804;SDS011;11064;47.102;15.452;2023-03-01T20:21:32;35.42;;;19.05;;
21804;SDS011;11064;47.102;15.452;2023-03-01T20:23:59;36.90;;;19.85;;
21804;SDS011;11064;47.102;15.452;2023-03-01T20:26:25;37.13;;;18.73;;
21804;SDS011;11064;47.102;15.452;2023-03-01T20:28:53;37.22;;;19.48;;
21804;SDS011;11064;47.102;15.452;2023-03-01T20:31:21;54.97;;;28.45;;
21804;SDS011;11064;47.102;15.452;2023-03-01T20:33:54;53.75;;;27.65;;
21804;SDS011;11064;47.102;15.452;2023-03-01T20:36:21;72.88;;;42.92;;
21804;SDS011;11064;47.102;15.452;2023-03-01T20:38:50;55.83;;;33.97;;
21804;SDS011;11064;47.102;15.452;2023-03-01T20:41:17;47.63;;;27.95;;
21804;SDS011;11064;47.102;15.452;2023-03-01T20:43:44;45.88;;;24.92;;
21804;SDS011;11064;47.102;15.452;2023-03-01T20:46:18;41.42;;;24.48;;
21804;SDS011;11064;47.102;15.452;2023-03-01T20:48:48;37.63;;;21.55;;
21804;SDS011;11064;47.102;15.452;2023-03-01T20:51:18;37.55;;;21.80;;
21804;SDS011;11064;47.102;15.452;2023-03-01T20:53:44;39.45;;;19.85;;
21804;SDS011;11064;47.102;15.452;2023-03-01T20:56:14;39.10;;;22.73;;
21804;SDS011;11064;47.102;15.452;2023-03-01T21:01:08;38.45;;;22.17;;
21804;SDS011;11064;47.102;15.452;2023-03-01T21:03:39;39.13;;;22.25;;
21804;SDS011;11064;47.102;15.452;2023-03-01T21:06:05;46.63;;;26.00;;
21804;SDS011;11064;47.102;15.452;2023-03-01T21:08:31;55.08;;;26.10;;
21804;SDS011;11064;47.102;15.452;2023-03-01T21:10:58;45.13;;;26.35;;
21804;SDS011;11064;47.102;15.452;2023-03-01T21:13:25;44.53;;;25.80;;
21804;SDS011;11064;47.102;15.452;2023-03-01T21:15:52;40.13;;;21.90;;
21804;SDS011;11064;47.102;15.452;2023-03-01T21:18:28;36.75;;;20.75;;
21804;SDS011;11064;47.102;15.452;2023-03-01T21:20:59;40.83;;;22.48;;
21804;SDS011;11064;47.102;15.452;2023-03-01T21:23:29;45.60;;;23.13;;
21804;SDS011;11064;47.102;15.452;2023-03-01T21:26:03;42.03;;;22.45;;
21804;SDS011;11064;47.102;15.452;2023-03-01T21:28:36;43.10;;;22.50;;
21804;SDS011;11064;47.102;15.452;2023-03-01T21:31:36;50.88;;;22.45;;
21804;SDS011;11064;47.102;15.452;2023-03-01T21:33:58;151.20;;;25.95;;